Time;durP1;ratioP1;P1;durP2;ratioP2;P2;SDS_P1;SDS_P2;PMS_P1;PMS_P2;Temp;Humidity;BMP_temperature;BMP_pressure;BME280_temperature;BME280_humidity;BME280_pressure;Samples;Min_cycle;Max_cycle;Signal;HPM_P1;HPM_P2
2022/05/01 00:01:08;;;;;;;5.00;3.72;;;11.10;81.40;;;;;;4967845;29;20035;-96
2022/05/01 00:03:35;;;;;;;5.30;4.00;;;11.00;81.50;;;;;;4967523;29;20051;-96
2022/05/01 00:06:06;;;;;;;4.78;3.78;;;10.90;82.30;;;;;;4964115;29;20564;-96
2022/05/01 00:08:33;;;;;;;5.35;3.65;;;11.00;82.00;;;;;;4958397;29;20113;-96
2022/05/01 00:11:00;;;;;;;7.65;4.20;;;10.90;81.60;;;;;;4962224;29;20031;-96
2022/05/01 00:13:30;;;;;;;7.03;4.45;;;11.00;81.50;;;;;;4972742;29;20046;-96
2022/05/01 00:16:06;;;;;;;7.47;5.18;;;10.90;82.10;;;;;;4961639;29;20031;-96
2022/05/01 00:18:36;;;;;;;5.90;4.30;;;10.90;81.70;;;;;;4992025;28;20473;-96
2022/05/01 00:21:06;;;;;;;5.80;4.10;;;10.80;82.10;;;;;;4987701;28;20055;-96
2022/05/01 00:23:33;;;;;;;7.80;3.67;;;10.80;82.60;;;;;;4993390;28;20051;-96
2022/05/01 00:26:05;;;;;;;5.35;3.60;;;10.80;82.50;;;;;;4992638;28;20038;-96
2022/05/01 00:28:36;;;;;;;7.88;4.20;;;10.80;83.00;;;;;;4985798;28;20098;-96
2022/05/01 00:31:03;;;;;;;;;;;10.80;83.70;;;;;;4985678;28;20027;-96
2022/05/01 00:36:26;;;;;;;7.47;4.18;;;10.70;84.30;;;;;;4987379;28;20065;-96
2022/05/01 00:39:03;;;;;;;13.30;4.45;;;10.60;84.80;;;;;;4982828;28;20100;-96
2022/05/01 00:41:35;;;;;;;6.35;4.28;;;10.60;85.00;;;;;;4984443;28;20095;-96
2022/05/01 00:44:10;;;;;;;7.80;4.43;;;10.60;84.80;;;;;;4991822;28;20107;-96
2022/05/01 00:46:41;;;;;;;7.35;4.18;;;10.70;84.90;;;;;;4989000;28;20022;-96
2022/05/01 00:49:15;;;;;;;6.43;4.32;;;10.60;85.30;;;;;;4988586;28;20030;-96
2022/05/01 00:51:58;;;;;;;6.60;3.67;;;10.60;85.60;;;;;;4985157;28;20054;-96
2022/05/01 00:54:35;;;;;;;6.30;4.20;;;10.60;84.80;;;;;;4982623;28;20023;-96
2022/05/01 00:57:03;;;;;;;5.47;4.13;;;10.60;85.40;;;;;;4984103;28;20030;-96
2022/05/01 00:59:30;;;;;;;7.75;4.30;;;10.60;85.70;;;;;;4982462;28;20046;-96
2022/05/01 01:01:56;;;;;;;8.25;4.30;;;10.60;85.10;;;;;;4982009;28;20026;-96
2022/05/01 01:04:26;;;;;;;9.32;4.68;;;10.60;84.60;;;;;;4987517;28;20038;-96
2022/05/01 01:06:53;;;;;;;5.80;4.28;;;10.60;85.00;;;;;;4984139;28;20038;-96
2022/05/01 01:09:24;;;;;;;6.20;4.53;;;10.50;85.30;;;;;;4987257;28;20042;-96
2022/05/01 01:15:11;;;;;;;6.20;4.20;;;10.50;85.50;;;;;;4986503;28;20046;-96
2022/05/01 01:17:42;;;;;;;8.25;4.30;;;10.50;85.60;;;;;;4985361;28;20023;-96
2022/05/01 01:20:13;;;;;;;5.78;3.97;;;10.50;85.60;;;;;;4981727;28;20023;-96
2022/05/01 01:22:39;;;;;;;8.00;4.32;;;10.60;85.50;;;;;;4980451;28;20070;-96
2022/05/01 01:25:10;;;;;;;6.95;4.60;;;10.60;85.10;;;;;;4982552;28;20356;-96
2022/05/01 01:27:39;;;;;;;7.60;4.30;;;10.60;85.70;;;;;;4986875;28;20031;-96
2022/05/01 01:32:52;;;;;;;12.95;6.20;;;10.50;86.10;;;;;;4983408;28;20041;-96
2022/05/01 01:35:21;;;;;;;10.57;5.57;;;10.50;86.60;;;;;;4969045;28;20039;-96
2022/05/01 01:37:50;;;;;;;10.20;5.30;;;10.40;87.00;;;;;;4984101;28;20027;-96
2022/05/01 01:40:24;;;;;;;6.85;4.15;;;10.40;86.90;;;;;;4981260;28;20049;-96
2022/05/01 01:42:52;;;;;;;6.70;4.20;;;10.40;85.60;;;;;;4989681;28;20086;-96
2022/05/01 01:45:19;;;;;;;7.25;4.03;;;10.40;86.20;;;;;;4988472;28;20097;-96
2022/05/01 01:47:45;;;;;;;7.15;4.20;;;10.40;85.60;;;;;;4984966;28;20073;-96
2022/05/01 01:50:13;;;;;;;7.25;3.90;;;10.40;85.80;;;;;;4986713;28;20050;-96
2022/05/01 01:52:44;;;;;;;6.35;4.38;;;10.40;86.30;;;;;;4985854;28;20029;-96
2022/05/01 01:55:13;;;;;;;7.45;4.35;;;10.40;86.40;;;;;;4986499;28;20026;-96
2022/05/01 01:57:40;;;;;;;5.57;4.55;;;10.40;86.40;;;;;;4988952;28;20027;-96
2022/05/01 02:00:08;;;;;;;6.30;4.63;;;10.40;86.60;;;;;;4986934;28;20027;-96
2022/05/01 02:02:35;;;;;;;11.38;5.38;;;10.40;86.60;;;;;;4987645;28;20031;-96
2022/05/01 02:05:01;;;;;;;7.13;4.43;;;10.40;86.20;;;;;;4981141;28;20174;-95
2022/05/01 02:07:29;;;;;;;8.05;4.45;;;10.40;84.60;;;;;;4983496;28;20070;-95
2022/05/01 02:09:57;;;;;;;6.47;3.83;;;10.40;84.50;;;;;;4983171;28;20027;-96
2022/05/01 02:12:22;;;;;;;5.68;4.30;;;10.40;84.20;;;;;;4985807;28;20031;-96
2022/05/01 02:14:48;;;;;;;6.60;4.55;;;10.40;84.60;;;;;;4987408;28;20022;-96
2022/05/01 02:17:15;;;;;;;8.30;4.07;;;10.40;85.10;;;;;;4986549;28;20054;-96
2022/05/01 02:19:41;;;;;;;10.48;4.15;;;10.40;85.00;;;;;;4987289;28;20019;-96
2022/05/01 02:22:09;;;;;;;6.88;4.82;;;10.40;85.20;;;;;;4987193;28;20137;-96
2022/05/01 02:24:35;;;;;;;5.38;4.10;;;10.40;85.10;;;;;;4981938;28;20363;-96
2022/05/01 02:27:01;;;;;;;4.60;3.92;;;10.40;85.30;;;;;;4983202;28;20031;-96
2022/05/01 02:29:27;;;;;;;5.40;4.45;;;10.40;85.90;;;;;;4984415;28;20030;-96
2022/05/01 02:31:55;;;;;;;7.68;4.60;;;10.40;86.30;;;;;;4983552;28;20123;-96
2022/05/01 02:34:22;;;;;;;6.10;4.22;;;10.40;86.20;;;;;;4985023;28;20037;-96
2022/05/01 02:36:52;;;;;;;5.32;4.18;;;10.40;85.80;;;;;;4988510;28;20022;-96
2022/05/01 02:39:18;;;;;;;;;;;10.40;85.90;;;;;;4988652;28;20060;-96
2022/05/01 02:41:46;;;;;;;6.32;4.30;;;10.40;85.50;;;;;;4985329;28;19917;-96
2022/05/01 02:44:12;;;;;;;6.60;4.75;;;10.40;84.70;;;;;;4984228;28;20117;-96
2022/05/01 02:46:39;;;;;;;5.55;3.78;;;10.40;84.90;;;;;;4986824;28;20082;-96
2022/05/01 02:49:06;;;;;;;7.60;4.28;;;10.40;84.20;;;;;;4987186;28;20027;-96
2022/05/01 02:51:31;;;;;;;6.00;4.65;;;10.40;83.90;;;;;;4980061;28;20038;-96
2022/05/01 02:54:02;;;;;;;5.72;4.53;;;10.40;83.40;;;;;;4980867;28;20027;-96
2022/05/01 02:56:30;;;;;;;6.15;4.32;;;10.40;83.40;;;;;;4983513;28;20109;-96
2022/05/01 02:58:57;;;;;;;5.95;4.40;;;10.40;83.00;;;;;;4985073;28;20034;-96
2022/05/01 03:01:23;;;;;;;5.15;4.18;;;10.40;83.40;;;;;;4986280;28;20031;-96
2022/05/01 03:03:49;;;;;;;9.63;4.78;;;10.50;83.50;;;;;;4985686;28;20090;-96
2022/05/01 03:06:15;;;;;;;6.53;4.38;;;10.50;83.60;;;;;;4981486;28;20041;-96
2022/05/01 03:08:41;;;;;;;7.07;4.50;;;10.50;84.10;;;;;;4981444;28;20034;-96
2022/05/01 03:11:08;;;;;;;5.82;4.22;;;10.50;84.20;;;;;;4985159;28;20382;-96
2022/05/01 03:13:35;;;;;;;4.45;3.75;;;10.50;84.10;;;;;;4971330;28;20027;-96
2022/05/01 03:16:01;;;;;;;5.10;3.72;;;10.60;84.40;;;;;;4990148;28;20022;-96
2022/05/01 03:23:58;;;;;;;6.05;4.20;;;10.60;85.20;;;;;;4984547;28;20374;-96
2022/05/01 03:26:25;;;;;;;5.63;4.32;;;10.60;83.90;;;;;;4984062;28;20026;-96
2022/05/01 03:28:53;;;;;;;5.25;4.18;;;10.50;84.10;;;;;;4981501;28;20023;-96
2022/05/01 03:31:19;;;;;;;5.38;4.32;;;10.60;83.60;;;;;;4987221;28;20033;-96
2022/05/01 03:33:45;;;;;;;5.75;4.55;;;10.60;83.50;;;;;;4984853;28;20039;-96
2022/05/01 03:36:11;;;;;;;5.75;4.03;;;10.60;83.90;;;;;;4983887;28;20023;-96
2022/05/01 03:38:40;;;;;;;5.32;4.28;;;10.60;83.50;;;;;;4989156;28;20023;-96
2022/05/01 03:41:07;;;;;;;7.82;4.30;;;10.60;83.90;;;;;;4981677;28;20038;-96
2022/05/01 03:43:34;;;;;;;10.02;4.40;;;10.70;84.00;;;;;;4978777;28;20106;-96
2022/05/01 03:46:01;;;;;;;5.93;4.20;;;10.80;84.60;;;;;;4981757;28;20026;-96
2022/05/01 03:48:28;;;;;;;5.35;4.15;;;10.80;84.50;;;;;;4986532;28;20035;-96
2022/05/01 03:50:54;;;;;;;9.05;4.20;;;10.90;84.50;;;;;;4979096;28;20030;-96
2022/05/01 03:53:21;;;;;;;6.35;4.00;;;10.80;84.30;;;;;;4982308;28;20019;-96
2022/05/01 03:55:47;;;;;;;4.97;3.78;;;10.80;84.80;;;;;;4983622;28;20047;-96
2022/05/01 03:58:13;;;;;;;4.68;3.80;;;10.80;83.60;;;;;;4986005;28;20111;-96
2022/05/01 04:00:41;;;;;;;8.60;4.60;;;11.00;83.40;;;;;;4983651;28;20030;-96
2022/05/01 04:03:07;;;;;;;5.70;3.55;;;11.00;82.60;;;;;;4987713;28;20019;-96
2022/05/01 04:05:33;;;;;;;6.10;4.03;;;11.10;82.90;;;;;;4981831;28;20055;-96
2022/05/01 04:08:01;;;;;;;6.13;4.03;;;11.20;82.70;;;;;;4979401;28;20030;-96
2022/05/01 04:10:31;;;;;;;5.53;3.70;;;11.30;82.10;;;;;;4973738;28;20061;-96
2022/05/01 04:12:57;;;;;;;6.40;3.60;;;11.50;82.10;;;;;;4967542;28;20054;-96
2022/05/01 04:15:23;;;;;;;10.40;3.95;;;11.60;81.40;;;;;;4965003;28;20086;-96
2022/05/01 04:17:49;;;;;;;5.00;3.83;;;11.70;80.70;;;;;;4980183;28;20023;-96
2022/05/01 04:20:16;;;;;;;4.68;3.80;;;11.80;79.30;;;;;;4979414;28;20110;-96
2022/05/01 04:22:47;;;;;;;6.43;4.10;;;11.80;79.40;;;;;;5005775;28;20050;-96
2022/05/01 04:25:22;;;;;;;6.25;4.05;;;11.70;78.50;;;;;;4983567;28;20057;-96
2022/05/01 04:27:51;;;;;;;4.82;3.60;;;11.90;78.70;;;;;;4981252;28;20034;-96
2022/05/01 04:30:18;;;;;;;4.17;3.50;;;12.00;79.00;;;;;;4980981;28;20030;-96
2022/05/01 04:32:58;;;;;;;5.90;3.78;;;12.00;78.90;;;;;;4983687;28;20276;-96
2022/05/01 04:35:34;;;;;;;5.00;3.63;;;12.10;78.70;;;;;;4983191;28;20023;-96
2022/05/01 04:38:05;;;;;;;5.35;3.58;;;12.30;79.10;;;;;;4984742;28;20030;-96
2022/05/01 04:40:38;;;;;;;7.30;3.90;;;12.70;78.10;;;;;;5003566;28;20109;-96
2022/05/01 04:43:06;;;;;;;5.88;3.97;;;13.10;76.10;;;;;;4983658;28;20026;-96
2022/05/01 04:45:34;;;;;;;7.85;3.80;;;13.60;75.30;;;;;;4990563;28;20019;-96
2022/05/01 04:48:01;;;;;;;7.75;3.90;;;13.70;73.90;;;;;;4988103;28;20109;-96
2022/05/01 04:50:28;;;;;;;5.88;3.67;;;14.70;72.30;;;;;;4987715;28;20018;-96
2022/05/01 04:52:55;;;;;;;5.38;3.50;;;15.00;70.60;;;;;;5005487;28;20025;-96
2022/05/01 04:55:21;;;;;;;4.60;3.58;;;14.70;70.00;;;;;;4985521;28;20027;-96
2022/05/01 04:57:49;;;;;;;5.93;3.90;;;15.00;69.80;;;;;;4994835;28;20023;-96
2022/05/01 05:00:20;;;;;;;6.20;4.07;;;14.50;69.80;;;;;;5010992;28;20038;-96
2022/05/01 05:03:20;;;;;;;5.28;3.38;;;14.30;70.20;;;;;;4996768;28;20030;-96
2022/05/01 05:05:47;;;;;;;4.50;4.10;;;14.10;70.30;;;;;;4999900;28;20038;-96
2022/05/01 05:10:58;;;;;;;5.60;4.10;;;13.50;71.80;;;;;;5002213;28;20053;-96
2022/05/01 05:13:27;;;;;;;5.43;4.18;;;13.40;71.80;;;;;;4985386;28;20027;-96
2022/05/01 05:15:59;;;;;;;5.43;3.78;;;13.20;72.90;;;;;;4986940;28;20029;-96
2022/05/01 05:18:26;;;;;;;5.05;4.05;;;13.10;73.30;;;;;;4984056;28;20026;-95
2022/05/01 05:20:52;;;;;;;5.95;3.88;;;13.20;73.30;;;;;;4982088;28;20054;-96
2022/05/01 05:23:18;;;;;;;7.30;4.13;;;12.90;73.90;;;;;;4983701;28;20100;-96
2022/05/01 05:25:44;;;;;;;9.45;4.35;;;13.00;74.80;;;;;;4996451;28;20037;-96
2022/05/01 17:28:37;;;;;;;3.13;2.40;;;11.00;60.00;;;;;;5104731;27;1447923;-80
2022/05/01 17:31:16;;;;;;;3.63;2.85;;;10.60;60.80;;;;;;5131859;27;20028;-80
2022/05/01 17:33:50;;;;;;;4.78;3.40;;;10.50;62.30;;;;;;5129821;28;20057;-80
2022/05/01 17:36:17;;;;;;;5.97;3.55;;;10.40;64.30;;;;;;5129711;27;20054;-80
2022/05/01 17:38:44;;;;;;;6.10;3.70;;;10.40;64.70;;;;;;5128292;28;20030;-80
2022/05/01 17:41:12;;;;;;;12.07;4.13;;;10.30;65.60;;;;;;5128270;28;20474;-80
2022/05/01 17:43:39;;;;;;;6.75;4.60;;;10.30;66.30;;;;;;5128381;28;20509;-80
2022/05/01 17:46:07;;;;;;;9.20;5.22;;;10.20;66.50;;;;;;5128066;28;20019;-80
2022/05/01 17:48:41;;;;;;;15.43;6.63;;;10.20;66.90;;;;;;5129436;27;20032;-80
2022/05/01 17:51:06;;;;;;;9.70;6.80;;;10.10;68.60;;;;;;5130271;28;20015;-80
2022/05/01 17:53:42;;;;;;;15.27;8.38;;;10.10;68.20;;;;;;5129260;28;20424;-80
2022/05/01 17:56:08;;;;;;;12.52;7.63;;;10.10;69.80;;;;;;5131438;27;20030;-80
2022/05/01 17:58:34;;;;;;;16.05;7.70;;;10.00;69.40;;;;;;5130028;28;20026;-80
2022/05/01 18:01:25;;;;;;;15.65;8.68;;;10.00;69.20;;;;;;5129994;28;20377;-80
2022/05/01 18:10:06;;;;;;;20.83;11.32;;;9.80;71.20;;;;;;5131163;28;20484;-80
2022/05/01 18:12:38;;;;;;;24.50;11.52;;;9.70;71.40;;;;;;5131063;28;20517;-80
2022/05/01 18:15:06;;;;;;;21.08;11.23;;;9.60;71.10;;;;;;5129699;28;20024;-80
2022/05/01 18:17:38;;;;;;;24.35;11.00;;;9.60;71.80;;;;;;5130007;28;20031;-80
2022/05/01 18:20:13;;;;;;;17.65;9.95;;;9.50;72.20;;;;;;5129720;28;20030;-80
2022/05/01 18:22:43;;;;;;;18.92;9.63;;;9.40;72.20;;;;;;5129559;28;20031;-80
2022/05/01 18:25:13;;;;;;;19.43;9.70;;;9.40;72.70;;;;;;5129612;28;20057;-80
2022/05/01 18:27:50;;;;;;;15.82;9.30;;;9.30;72.90;;;;;;5129153;28;20650;-80
2022/05/01 18:30:26;;;;;;;21.55;9.25;;;9.20;73.50;;;;;;5130640;27;20098;-80
2022/05/01 18:33:05;;;;;;;16.88;9.20;;;9.10;74.00;;;;;;5129535;28;20423;-80
2022/05/01 18:35:38;;;;;;;18.05;8.68;;;9.10;74.30;;;;;;5129643;28;20106;-80
2022/05/01 18:38:29;;;;;;;14.48;9.05;;;9.00;74.50;;;;;;5126416;28;20089;-80
2022/05/01 18:41:02;;;;;;;14.52;8.52;;;8.90;75.70;;;;;;5115667;28;20534;-80
2022/05/01 18:43:29;;;;;;;16.40;8.82;;;8.90;75.20;;;;;;5115674;28;20035;-80
2022/05/01 18:45:56;;;;;;;17.35;8.85;;;8.80;75.60;;;;;;5115541;28;20028;-80
2022/05/01 18:48:27;;;;;;;18.30;8.98;;;8.80;76.30;;;;;;5116640;28;20500;-80
2022/05/01 18:50:56;;;;;;;17.65;8.45;;;8.70;76.80;;;;;;5116717;28;20024;-80
2022/05/01 18:53:24;;;;;;;16.60;9.20;;;8.70;77.50;;;;;;5115448;28;20024;-79
2022/05/01 18:55:51;;;;;;;19.05;9.52;;;8.70;77.30;;;;;;5113480;28;20027;-79
2022/05/01 18:58:19;;;;;;;21.10;10.27;;;8.60;77.80;;;;;;5115209;28;20020;-79
2022/05/01 19:00:47;;;;;;;17.45;10.50;;;8.60;78.50;;;;;;5115152;28;20397;-79
2022/05/01 19:03:13;;;;;;;21.58;11.27;;;8.50;78.50;;;;;;5114921;28;20032;-79
2022/05/01 19:05:50;;;;;;;25.48;13.38;;;8.50;79.10;;;;;;5116426;28;20107;-79
2022/05/01 19:08:28;;;;;;;22.90;12.15;;;8.40;81.80;;;;;;5115125;28;20027;-79
2022/05/01 19:11:18;;;;;;;20.65;10.48;;;8.40;80.50;;;;;;5114991;28;20020;-79
2022/05/01 19:14:03;;;;;;;19.80;11.52;;;8.40;80.30;;;;;;5115111;28;20077;-79
2022/05/01 19:16:46;;;;;;;18.88;12.48;;;8.30;80.50;;;;;;5114940;28;20561;-79
2022/05/01 19:19:29;;;;;;;20.70;12.18;;;8.30;80.80;;;;;;5114989;28;20024;-80
2022/05/01 19:22:48;;;;;;;24.15;14.77;;;8.20;80.90;;;;;;5116083;28;20020;-79
2022/05/01 19:28:32;;;;;;;51.75;28.30;;;8.10;81.40;;;;;;5115727;28;20084;-79
2022/05/01 19:31:05;;;;;;;40.88;22.67;;;8.10;82.30;;;;;;5114868;28;20027;-79
2022/05/01 19:33:55;;;;;;;39.80;17.92;;;8.00;82.20;;;;;;5114713;28;20027;-79
2022/05/01 19:36:44;;;;;;;32.53;17.92;;;8.00;82.80;;;;;;5114385;28;20424;-79
2022/05/01 19:39:31;;;;;;;36.08;18.38;;;8.00;82.80;;;;;;5114485;28;20019;-79
2022/05/01 19:42:09;;;;;;;31.30;16.88;;;7.90;83.00;;;;;;5114422;28;20386;-78
2022/05/01 19:44:55;;;;;;;45.33;24.30;;;7.90;83.80;;;;;;5114431;28;20019;-78
2022/05/01 19:53:57;;;;;;;27.98;15.98;;;7.70;84.30;;;;;;5072712;28;20025;-79
2022/05/01 19:56:23;;;;;;;26.13;14.20;;;7.60;84.80;;;;;;5106821;28;20136;-79
2022/05/01 19:58:53;;;;;;;18.98;12.95;;;7.50;85.20;;;;;;5114151;28;20458;-79
2022/05/01 20:01:20;;;;;;;23.67;12.93;;;7.50;85.30;;;;;;5114284;28;20086;-79
2022/05/01 20:03:48;;;;;;;25.67;12.88;;;7.40;86.40;;;;;;5114030;28;20083;-79
2022/05/01 20:06:16;;;;;;;22.08;11.73;;;7.40;86.50;;;;;;5113911;28;20023;-79
2022/05/01 20:08:44;;;;;;;24.67;12.40;;;7.30;86.50;;;;;;5114062;28;20461;-79
2022/05/01 20:11:11;;;;;;;21.83;12.73;;;7.30;86.60;;;;;;5113935;28;20031;-79
2022/05/01 20:13:37;;;;;;;21.48;12.43;;;7.20;87.10;;;;;;5113824;28;20398;-79
2022/05/01 20:16:15;;;;;;;22.95;12.40;;;7.20;87.20;;;;;;5114944;28;20019;-79
2022/05/01 20:18:50;;;;;;;18.95;11.60;;;7.20;87.70;;;;;;5113621;28;20024;-79
2022/05/01 20:21:43;;;;;;;17.88;11.13;;;7.10;88.10;;;;;;5114893;28;20015;-79
2022/05/01 20:24:43;;;;;;;20.83;11.75;;;7.10;88.30;;;;;;5114831;28;20462;-79
2022/05/01 20:27:24;;;;;;;26.10;12.75;;;7.00;89.00;;;;;;5114318;28;20044;-79
2022/05/01 20:29:55;;;;;;;;;;;6.90;89.20;;;;;;5113994;28;20023;-79
2022/05/01 20:32:33;;;;;;;24.88;12.52;;;6.90;89.80;;;;;;5114771;28;19904;-79
2022/05/01 20:35:13;;;;;;;22.88;13.02;;;6.80;89.60;;;;;;5113378;28;20401;-79
2022/05/01 20:37:44;;;;;;;21.80;12.40;;;6.80;89.80;;;;;;5114684;28;20528;-79
2022/05/01 20:40:12;;;;;;;26.23;13.82;;;6.80;90.10;;;;;;5113227;28;20386;-79
2022/05/01 20:42:59;;;;;;;24.80;14.02;;;6.70;90.50;;;;;;5115094;28;20535;-79
2022/05/01 20:45:43;;;;;;;24.15;13.45;;;6.70;90.70;;;;;;5113194;28;20402;-79
2022/05/01 20:48:31;;;;;;;27.92;15.10;;;6.70;90.90;;;;;;5113165;28;20054;-79
2022/05/01 20:51:03;;;;;;;31.13;15.45;;;6.60;91.00;;;;;;5113183;28;20020;-79
2022/05/01 20:53:44;;;;;;;32.92;15.95;;;6.60;91.50;;;;;;5113048;28;20432;-79
2022/05/01 20:56:15;;;;;;;38.08;18.13;;;6.50;92.00;;;;;;5113012;28;20039;-79
2022/05/01 20:58:42;;;;;;;;;;;6.50;91.90;;;;;;5114768;28;20047;-79
2022/05/01 21:01:10;;;;;;;29.50;15.05;;;6.40;92.30;;;;;;5112915;28;20051;-79
2022/05/01 21:03:39;;;;;;;28.65;14.70;;;6.40;92.10;;;;;;5114388;28;20024;-79
2022/05/01 21:06:05;;;;;;;35.53;17.45;;;6.40;92.10;;;;;;5112824;28;20020;-79
2022/05/01 21:08:35;;;;;;;33.80;17.45;;;6.30;92.40;;;;;;5114069;28;20481;-79
2022/05/01 21:11:03;;;;;;;37.70;17.65;;;6.30;92.50;;;;;;5112905;28;20027;-79
2022/05/01 21:13:33;;;;;;;34.97;17.38;;;6.30;92.70;;;;;;5114105;28;20036;-79
2022/05/01 21:16:02;;;;;;;32.22;16.55;;;6.30;94.10;;;;;;5112818;28;20051;-79
2022/05/01 21:18:28;;;;;;;32.92;17.77;;;6.30;93.90;;;;;;5112720;28;20039;-79
2022/05/01 21:20:53;;;;;;;27.40;15.70;;;6.30;93.80;;;;;;5113841;28;20475;-79
2022/05/01 21:23:19;;;;;;;31.00;16.17;;;6.20;94.20;;;;;;5112819;28;20420;-79
2022/05/01 21:25:45;;;;;;;28.42;15.65;;;6.20;94.10;;;;;;5112934;28;20076;-79
2022/05/01 21:33:39;;;;;;;31.25;14.77;;;6.10;95.00;;;;;;5114212;28;20069;-79
2022/05/01 21:36:05;;;;;;;28.63;14.48;;;6.00;95.20;;;;;;5112800;28;20390;-79
2022/05/01 21:38:31;;;;;;;25.38;14.32;;;6.00;95.20;;;;;;5113975;28;20110;-79
2022/05/01 21:40:57;;;;;;;24.90;13.85;;;6.00;95.60;;;;;;5112641;28;20434;-79
2022/05/01 21:43:23;;;;;;;28.77;13.55;;;6.00;95.70;;;;;;5112690;28;20027;-79
2022/05/01 21:45:49;;;;;;;22.95;13.63;;;5.90;95.90;;;;;;5113824;28;20027;-79
2022/05/01 21:48:15;;;;;;;29.25;16.48;;;5.90;96.10;;;;;;5113797;28;20462;-79
2022/05/01 21:50:40;;;;;;;30.90;15.75;;;5.90;96.40;;;;;;5112653;28;20034;-79
2022/05/01 21:53:06;;;;;;;37.70;17.65;;;5.80;96.40;;;;;;5112478;28;20026;-79
2022/05/01 21:55:33;;;;;;;41.42;16.80;;;5.80;96.80;;;;;;5113718;28;20028;-78
2022/05/01 21:57:59;;;;;;;31.02;17.23;;;5.80;96.90;;;;;;5112331;28;20023;-78
2022/05/01 22:00:25;;;;;;;31.10;15.77;;;5.80;97.00;;;;;;5112420;28;20038;-79
2022/05/01 22:02:52;;;;;;;30.42;16.13;;;5.80;97.10;;;;;;5112528;28;20062;-79
2022/05/01 22:05:18;;;;;;;33.47;15.73;;;5.70;97.20;;;;;;5113724;28;20028;-79
2022/05/01 22:07:44;;;;;;;32.70;14.65;;;5.70;97.40;;;;;;5112330;28;20030;-79
2022/05/01 22:10:10;;;;;;;28.08;15.30;;;5.60;97.50;;;;;;5113703;28;20062;-79
2022/05/01 22:12:36;;;;;;;24.00;13.63;;;5.60;97.70;;;;;;5112542;28;20026;-79
2022/05/01 22:15:03;;;;;;;22.52;12.63;;;5.50;97.80;;;;;;5114634;28;20363;-79
2022/05/01 22:17:40;;;;;;;21.08;12.50;;;5.50;98.00;;;;;;5115510;28;20035;-79
2022/05/01 22:20:06;;;;;;;20.73;12.20;;;5.50;98.50;;;;;;5114707;28;20020;-79
2022/05/01 22:22:32;;;;;;;21.95;12.40;;;5.50;98.80;;;;;;5115673;28;20031;-79
2022/05/01 22:24:58;;;;;;;26.30;13.20;;;5.50;99.00;;;;;;5116891;28;20020;-79
2022/05/01 22:27:23;;;;;;;26.15;12.27;;;5.40;99.10;;;;;;5116478;28;20486;-79
2022/05/01 22:29:49;;;;;;;21.52;11.30;;;5.40;99.30;;;;;;5116834;28;20032;-79
2022/05/01 22:32:17;;;;;;;20.33;10.85;;;5.30;99.40;;;;;;5115478;28;20015;-79
2022/05/01 22:34:43;;;;;;;20.85;11.30;;;5.30;99.60;;;;;;5116672;28;20508;-79
2022/05/01 22:39:53;;;;;;;20.38;11.18;;;5.30;99.80;;;;;;5115356;28;20196;-78
2022/05/01 22:42:18;;;;;;;24.17;11.80;;;5.20;99.80;;;;;;5115357;28;20059;-78
2022/05/01 22:44:44;;;;;;;19.48;11.63;;;5.20;99.90;;;;;;5116567;28;20099;-79
2022/05/01 22:47:10;;;;;;;19.33;11.32;;;5.20;99.90;;;;;;5116372;28;20104;-79
2022/05/01 22:49:35;;;;;;;27.10;11.60;;;5.20;99.90;;;;;;5115206;28;20500;-79
2022/05/01 22:52:01;;;;;;;19.05;11.48;;;5.10;99.90;;;;;;5116398;28;20094;-79
2022/05/01 22:54:27;;;;;;;17.90;11.25;;;5.10;99.90;;;;;;5114847;28;20024;-79
2022/05/01 22:56:52;;;;;;;20.80;11.45;;;5.10;99.90;;;;;;5114983;28;20023;-79
2022/05/01 22:59:18;;;;;;;19.42;10.98;;;5.10;99.90;;;;;;5115003;28;20483;-79
2022/05/01 23:01:44;;;;;;;18.02;10.38;;;5.00;99.90;;;;;;5116078;28;20069;-79
2022/05/01 23:04:09;;;;;;;16.73;10.38;;;5.00;99.90;;;;;;5116199;28;20026;-79
2022/05/01 23:06:35;;;;;;;16.70;10.02;;;4.90;99.90;;;;;;5116172;28;20035;-79
2022/05/01 23:09:01;;;;;;;16.35;9.02;;;4.90;99.90;;;;;;5115880;28;20023;-79
2022/05/01 23:11:26;;;;;;;14.90;9.43;;;4.90;99.90;;;;;;5114776;28;20023;-78
2022/05/01 23:13:52;;;;;;;16.52;8.85;;;4.90;99.90;;;;;;5114673;28;20023;-78
2022/05/01 23:16:19;;;;;;;14.38;8.80;;;4.80;99.90;;;;;;5114622;28;20020;-78
2022/05/01 23:18:44;;;;;;;16.83;9.00;;;4.80;99.90;;;;;;5113116;28;20012;-79
2022/05/01 23:21:10;;;;;;;13.45;8.75;;;4.80;99.90;;;;;;5114517;28;20019;-78
2022/05/01 23:23:39;;;;;;;14.20;8.65;;;4.80;99.90;;;;;;5115730;28;20020;-78
2022/05/01 23:26:04;;;;;;;11.52;7.75;;;4.70;99.90;;;;;;5114262;28;20019;-78
2022/05/01 23:28:30;;;;;;;13.10;8.05;;;4.70;99.90;;;;;;5115394;28;20394;-78
2022/05/01 23:30:56;;;;;;;11.10;7.47;;;4.70;99.90;;;;;;5115567;28;20019;-78
2022/05/01 23:33:22;;;;;;;12.90;7.90;;;4.60;99.90;;;;;;5114245;28;20435;-78
2022/05/01 23:35:50;;;;;;;12.50;7.00;;;4.60;99.90;;;;;;5114224;28;20035;-78
2022/05/01 23:38:16;;;;;;;13.82;7.78;;;4.60;99.90;;;;;;5114175;28;20023;-78
2022/05/01 23:40:44;;;;;;;13.20;8.23;;;4.60;99.90;;;;;;5115280;28;20023;-78
2022/05/01 23:43:09;;;;;;;12.10;8.07;;;4.50;99.90;;;;;;5114118;28;20027;-78
2022/05/01 23:45:36;;;;;;;10.95;7.72;;;4.50;99.90;;;;;;5114139;28;20027;-78
2022/05/01 23:48:03;;;;;;;11.23;7.85;;;4.50;99.90;;;;;;5113948;28;20024;-78
2022/05/01 23:50:28;;;;;;;11.75;8.07;;;4.40;99.90;;;;;;5113998;28;20461;-78
2022/05/01 23:52:54;;;;;;;11.32;7.38;;;4.40;99.90;;;;;;5115086;28;20051;-78
2022/05/01 23:55:20;;;;;;;11.25;7.53;;;4.40;99.90;;;;;;5113851;28;20118;-78
2022/05/01 23:57:46;;;;;;;14.18;7.60;;;4.40;99.90;;;;;;5115209;28;20426;-78
